createdAt,value
2023-05-19T00:01:39.957Z,12.24
2023-05-19T00:04:10.661Z,12.25
2023-05-19T00:06:42.052Z,12.28
2023-05-19T00:09:12.961Z,12.30
2023-05-19T00:11:42.571Z,12.31
2023-05-19T00:14:12.156Z,12.30
2023-05-19T00:16:41.098Z,12.28
2023-05-19T00:19:11.406Z,12.26
2023-05-19T00:21:40.970Z,12.25
2023-05-19T00:24:10.477Z,12.25
2023-05-19T00:26:40.461Z,12.26
2023-05-19T00:29:10.951Z,12.25
2023-05-19T00:31:39.718Z,12.24
2023-05-19T00:34:11.050Z,12.23
2023-05-19T00:36:40.983Z,12.21
2023-05-19T00:39:11.073Z,12.19
2023-05-19T00:41:41.003Z,12.16
2023-05-19T00:44:09.741Z,12.14
2023-05-19T00:46:42.019Z,12.13
2023-05-19T00:49:12.042Z,12.11
2023-05-19T00:51:41.917Z,12.06
2023-05-19T00:54:11.233Z,11.99
2023-05-19T00:56:41.521Z,11.95
2023-05-19T00:59:11.348Z,11.92
2023-05-19T01:01:41.398Z,11.90
2023-05-19T01:04:11.979Z,11.87
2023-05-19T01:06:42.293Z,11.87
2023-05-19T01:09:12.846Z,11.87
2023-05-19T01:11:42.903Z,11.84
2023-05-19T01:14:12.771Z,11.84
2023-05-19T01:17:05.953Z,11.83
2023-05-19T01:19:39.256Z,11.81
2023-05-19T01:22:15.580Z,11.82
2023-05-19T01:25:10.908Z,11.83
2023-05-19T01:27:48.580Z,11.84
2023-05-19T01:30:25.885Z,11.86
2023-05-19T01:33:02.334Z,11.86
2023-05-19T01:35:33.528Z,11.84
2023-05-19T01:38:08.589Z,11.84
2023-05-19T01:40:40.971Z,11.85
2023-05-19T01:43:13.166Z,11.85
2023-05-19T01:45:43.395Z,11.86
2023-05-19T01:48:13.906Z,11.86
2023-05-19T01:50:44.408Z,11.85
2023-05-19T01:53:14.419Z,11.85
2023-05-19T01:55:51.962Z,11.87
2023-05-19T01:58:36.575Z,11.85
2023-05-19T02:01:19.894Z,11.84
2023-05-19T02:04:12.952Z,11.83
2023-05-19T02:06:47.136Z,11.84
2023-05-19T02:09:24.667Z,11.85
2023-05-19T02:12:10.254Z,11.82
2023-05-19T02:14:46.942Z,11.82
2023-05-19T02:17:17.282Z,11.84
2023-05-19T02:19:46.866Z,11.86
2023-05-19T02:22:17.508Z,11.84
2023-05-19T02:24:48.321Z,11.82
2023-05-19T02:27:18.337Z,11.81
2023-05-19T02:29:48.071Z,11.81
2023-05-19T02:32:18.644Z,11.81
2023-05-19T02:34:49.481Z,11.81
2023-05-19T02:37:18.924Z,11.80
2023-05-19T02:39:48.421Z,11.81
2023-05-19T02:42:20.619Z,11.79
2023-05-19T02:44:50.836Z,11.75
2023-05-19T02:47:20.607Z,11.73
2023-05-19T02:49:50.155Z,11.67
2023-05-19T02:52:19.913Z,11.62
2023-05-19T02:54:49.620Z,11.60
2023-05-19T02:57:19.450Z,11.60
2023-05-19T02:59:49.080Z,11.61
2023-05-19T03:02:18.758Z,11.61
2023-05-19T03:04:48.785Z,11.61
2023-05-19T03:07:19.584Z,11.59
2023-05-19T03:09:49.135Z,11.58
2023-05-19T03:12:18.692Z,11.57
2023-05-19T03:14:48.725Z,11.57
2023-05-19T03:17:18.288Z,11.45
2023-05-19T03:19:47.965Z,11.34
2023-05-19T03:22:16.732Z,11.26
2023-05-19T03:24:50.398Z,11.26
2023-05-19T03:27:20.198Z,11.32
2023-05-19T03:29:49.817Z,11.37
2023-05-19T03:32:19.529Z,11.43
2023-05-19T03:34:49.174Z,11.48
2023-05-19T03:37:18.895Z,11.52
2023-05-19T03:39:48.508Z,11.55
2023-05-19T03:42:18.186Z,11.57
2023-05-19T03:44:47.766Z,11.59
2023-05-19T03:47:17.777Z,11.62
2023-05-19T03:49:53.484Z,11.64
2023-05-19T03:52:50.145Z,11.66
2023-05-19T03:55:30.517Z,11.71
2023-05-19T03:58:00.028Z,11.79
2023-05-19T04:00:30.268Z,11.86
2023-05-19T04:03:00.997Z,11.93
2023-05-19T04:05:31.446Z,11.97
2023-05-19T04:08:02.726Z,12.03
2023-05-19T04:10:32.376Z,12.07
2023-05-19T04:13:02.133Z,12.12
2023-05-19T04:15:31.013Z,12.19
2023-05-19T04:18:02.224Z,12.24
2023-05-19T04:20:31.852Z,12.28
2023-05-19T04:23:01.563Z,12.33
2023-05-19T04:25:31.586Z,12.40
2023-05-19T04:28:01.736Z,12.46
2023-05-19T04:30:32.502Z,12.52
2023-05-19T04:33:05.209Z,12.56
2023-05-19T04:35:34.709Z,12.62
2023-05-19T04:38:04.781Z,12.69
2023-05-19T04:40:35.321Z,12.77
2023-05-19T04:43:07.818Z,12.86
2023-05-19T04:45:38.162Z,12.93
2023-05-19T04:48:07.291Z,13.03
2023-05-19T04:50:39.182Z,13.12
2023-05-19T04:53:09.815Z,13.20
2023-05-19T04:55:39.273Z,13.26
2023-05-19T04:58:09.041Z,13.32
2023-05-19T05:00:38.853Z,13.38
2023-05-19T05:03:10.428Z,13.42
2023-05-19T05:05:41.336Z,13.49
2023-05-19T05:08:11.506Z,13.57
2023-05-19T05:10:43.501Z,13.68
2023-05-19T05:13:13.186Z,13.80
2023-05-19T05:15:43.650Z,13.90
2023-05-19T05:18:14.088Z,14.04
2023-05-19T05:20:43.765Z,14.18
2023-05-19T05:23:17.160Z,14.28
2023-05-19T05:25:48.700Z,14.36
2023-05-19T05:28:18.357Z,14.45
2023-05-19T05:30:49.498Z,14.57
2023-05-19T05:33:19.888Z,14.71
2023-05-19T05:35:50.958Z,14.82
2023-05-19T05:38:21.121Z,14.96
2023-05-19T05:40:50.994Z,15.05
2023-05-19T05:43:22.349Z,15.17
2023-05-19T05:45:57.542Z,15.29
2023-05-19T05:48:28.079Z,15.40
2023-05-19T05:50:58.388Z,15.52
2023-05-19T05:53:32.658Z,15.65
2023-05-19T05:56:04.995Z,15.78
2023-05-19T05:58:41.192Z,15.91
2023-05-19T06:01:11.171Z,16.02
2023-05-19T06:03:42.045Z,16.13
2023-05-19T06:06:12.079Z,16.28
2023-05-19T06:08:42.424Z,16.43
2023-05-19T06:11:12.310Z,16.60
2023-05-19T06:13:42.860Z,16.76
2023-05-19T06:16:17.095Z,16.92
2023-05-19T06:18:48.244Z,17.06
2023-05-19T06:21:18.065Z,17.17
2023-05-19T06:23:47.393Z,17.27
2023-05-19T06:26:17.350Z,17.39
2023-05-19T06:28:46.987Z,17.53
2023-05-19T06:31:16.966Z,17.71
2023-05-19T06:33:54.245Z,17.86
2023-05-19T06:36:24.315Z,18.04
2023-05-19T06:38:54.750Z,18.20
2023-05-19T06:41:24.758Z,18.34
2023-05-19T06:43:54.440Z,18.44
2023-05-19T06:46:25.537Z,18.61
2023-05-19T06:48:57.751Z,18.82
2023-05-19T06:51:27.821Z,18.98
2023-05-19T06:53:59.044Z,19.11
2023-05-19T06:56:30.015Z,19.20
2023-05-19T06:58:59.353Z,19.35
2023-05-19T07:01:34.915Z,19.55
2023-05-19T07:04:05.194Z,19.62
2023-05-19T07:06:35.408Z,19.69
2023-05-19T07:09:06.001Z,19.85
2023-05-19T07:11:36.279Z,20.01
2023-05-19T07:14:05.922Z,20.17
2023-05-19T07:16:35.667Z,20.40
2023-05-19T07:19:05.842Z,20.56
2023-05-19T07:21:36.234Z,20.68
2023-05-19T07:24:06.333Z,20.82
2023-05-19T07:26:36.115Z,21.03
2023-05-19T07:29:04.797Z,21.09
2023-05-19T07:31:34.311Z,21.25
2023-05-19T07:34:04.357Z,21.37
2023-05-19T07:36:33.110Z,21.47
2023-05-19T07:39:03.388Z,21.59
2023-05-19T07:41:33.164Z,21.74
2023-05-19T07:44:08.116Z,21.93
2023-05-19T07:46:38.265Z,22.24
2023-05-19T07:49:07.684Z,22.42
2023-05-19T07:51:36.436Z,22.54
2023-05-19T07:54:06.372Z,22.75
2023-05-19T07:56:36.331Z,22.93
2023-05-19T07:59:06.035Z,23.09
2023-05-19T08:01:36.076Z,23.23
2023-05-19T08:04:05.991Z,23.39
2023-05-19T08:06:36.101Z,23.44
2023-05-19T08:09:06.269Z,23.37
2023-05-19T08:11:36.028Z,23.29
2023-05-19T08:14:06.070Z,23.27
2023-05-19T08:16:35.954Z,23.44
2023-05-19T08:19:07.775Z,23.64
2023-05-19T08:21:37.770Z,23.58
2023-05-19T08:24:07.628Z,23.48
2023-05-19T08:26:37.934Z,23.41
2023-05-19T08:29:08.018Z,23.22
2023-05-19T08:31:38.176Z,23.00
2023-05-19T08:34:07.995Z,22.86
2023-05-19T08:36:38.019Z,22.88
2023-05-19T08:39:07.822Z,22.96
2023-05-19T08:41:37.951Z,22.98
2023-05-19T08:44:07.532Z,23.06
2023-05-19T08:46:37.756Z,23.09
2023-05-19T08:49:12.755Z,23.13
2023-05-19T08:51:43.057Z,23.24
2023-05-19T08:54:16.316Z,23.40
2023-05-19T08:56:47.043Z,23.50
2023-05-19T08:59:17.953Z,23.75
2023-05-19T09:01:48.223Z,24.04
2023-05-19T09:04:18.101Z,24.29
2023-05-19T09:06:47.528Z,24.60
2023-05-19T09:09:17.856Z,24.86
2023-05-19T09:11:47.551Z,25.15
2023-05-19T09:14:16.300Z,25.23
2023-05-19T09:16:50.159Z,25.24
2023-05-19T09:19:21.334Z,25.31
2023-05-19T09:22:00.642Z,25.39
2023-05-19T09:24:30.489Z,25.20
2023-05-19T09:27:00.394Z,25.27
2023-05-19T09:29:31.404Z,25.39
2023-05-19T09:32:04.772Z,25.59
2023-05-19T09:34:34.859Z,25.67
2023-05-19T09:37:06.192Z,25.72
2023-05-19T09:39:36.189Z,26.00
2023-05-19T09:42:07.273Z,26.18
2023-05-19T09:44:36.848Z,26.25
2023-05-19T09:47:05.751Z,26.38
2023-05-19T09:49:35.734Z,26.55
2023-05-19T09:52:06.289Z,26.43
2023-05-19T09:54:34.938Z,26.50
2023-05-19T09:57:07.708Z,26.65
2023-05-19T09:59:39.567Z,26.89
2023-05-19T10:02:11.938Z,26.83
2023-05-19T10:04:40.986Z,26.72
2023-05-19T10:07:14.838Z,26.67
2023-05-19T10:09:44.365Z,26.79
2023-05-19T10:12:13.827Z,26.92
2023-05-19T10:14:42.857Z,26.88
2023-05-19T10:17:12.871Z,26.86
2023-05-19T10:19:44.491Z,26.80
2023-05-19T10:22:14.612Z,26.97
2023-05-19T10:24:44.174Z,27.03
2023-05-19T10:27:15.061Z,27.01
2023-05-19T10:29:49.621Z,27.09
2023-05-19T10:32:21.750Z,27.31
2023-05-19T10:34:58.703Z,27.50
2023-05-19T10:37:48.551Z,27.46
2023-05-19T10:40:22.180Z,27.28
2023-05-19T10:42:52.438Z,27.31
2023-05-19T10:45:29.238Z,27.59
2023-05-19T10:47:58.099Z,27.92
2023-05-19T10:50:27.519Z,28.04
2023-05-19T10:52:58.354Z,27.93
2023-05-19T10:55:48.183Z,27.88
2023-05-19T10:58:37.172Z,27.98
2023-05-19T11:01:14.082Z,27.99
2023-05-19T11:03:51.086Z,27.95
2023-05-19T11:06:22.484Z,27.87
2023-05-19T11:09:14.905Z,28.00
2023-05-19T11:11:48.400Z,27.98
2023-05-19T11:14:24.664Z,27.90
2023-05-19T11:16:57.269Z,28.14
2023-05-19T11:19:31.857Z,28.38
2023-05-19T11:22:14.364Z,28.65
2023-05-19T11:24:50.525Z,28.77
2023-05-19T11:27:23.669Z,28.93
2023-05-19T11:29:54.209Z,29.10
2023-05-19T11:32:26.802Z,29.32
2023-05-19T11:34:58.246Z,29.45
2023-05-19T11:37:31.273Z,29.59
2023-05-19T11:40:03.158Z,29.37
2023-05-19T11:42:32.648Z,29.24
2023-05-19T11:45:02.524Z,29.29
2023-05-19T11:47:42.125Z,29.37
2023-05-19T11:50:21.754Z,29.40
2023-05-19T11:52:52.370Z,29.34
2023-05-19T11:55:22.671Z,29.29
2023-05-19T11:58:05.112Z,29.14
2023-05-19T12:00:40.093Z,28.90
2023-05-19T12:03:11.277Z,28.91
2023-05-19T12:05:45.075Z,28.94
2023-05-19T12:08:17.552Z,28.99
2023-05-19T12:10:52.868Z,29.22
2023-05-19T12:13:23.261Z,29.41
2023-05-19T12:15:53.652Z,29.49
2023-05-19T12:18:24.295Z,29.57
2023-05-19T12:20:54.088Z,29.30
2023-05-19T12:23:25.398Z,29.33
2023-05-19T12:25:55.094Z,29.44
2023-05-19T12:28:24.880Z,29.54
2023-05-19T12:30:54.658Z,29.73
2023-05-19T12:33:24.854Z,29.81
2023-05-19T12:35:54.938Z,29.81
2023-05-19T12:38:25.070Z,29.93
2023-05-19T12:41:00.594Z,30.01
2023-05-19T12:43:30.047Z,29.99
2023-05-19T12:45:58.854Z,29.99
2023-05-19T12:48:29.053Z,29.91
2023-05-19T12:50:58.651Z,29.89
2023-05-19T12:53:29.012Z,29.67
2023-05-19T12:55:58.562Z,29.58
2023-05-19T12:58:28.216Z,29.51
2023-05-19T13:01:00.335Z,29.41
2023-05-19T13:03:29.869Z,29.21
2023-05-19T13:06:00.377Z,29.33
2023-05-19T13:08:30.215Z,29.48
2023-05-19T13:11:02.195Z,29.58
2023-05-19T13:13:31.888Z,29.49
2023-05-19T13:16:01.217Z,29.34
2023-05-19T13:18:32.897Z,29.29
2023-05-19T13:21:02.497Z,29.09
2023-05-19T13:23:33.421Z,29.07
2023-05-19T13:26:05.454Z,29.00
2023-05-19T13:28:34.923Z,28.64
2023-05-19T13:31:06.284Z,28.63
2023-05-19T13:33:35.867Z,28.88
2023-05-19T13:36:05.587Z,28.99
2023-05-19T13:38:34.239Z,28.72
2023-05-19T13:41:03.035Z,28.42
2023-05-19T13:43:32.423Z,28.45
2023-05-19T13:46:01.870Z,28.52
2023-05-19T13:48:31.481Z,28.64
2023-05-19T13:51:00.878Z,28.60
2023-05-19T13:53:31.664Z,28.50
2023-05-19T13:56:01.281Z,28.49
2023-05-19T13:58:30.877Z,28.51
2023-05-19T14:01:00.678Z,28.60
2023-05-19T14:03:30.900Z,28.61
2023-05-19T14:06:00.528Z,28.70
2023-05-19T14:08:30.155Z,28.81
2023-05-19T14:10:58.947Z,28.09
2023-05-19T14:13:34.207Z,27.13
2023-05-19T14:16:05.451Z,26.22
2023-05-19T14:18:34.907Z,25.52
2023-05-19T14:21:04.332Z,25.20
2023-05-19T14:23:33.729Z,25.04
2023-05-19T14:26:05.237Z,24.87
2023-05-19T14:28:34.872Z,24.66
2023-05-19T14:31:04.302Z,24.47
2023-05-19T14:33:35.563Z,24.16
2023-05-19T14:36:08.057Z,24.12
2023-05-19T14:38:37.544Z,24.20
2023-05-19T14:41:07.678Z,24.17
2023-05-19T14:43:37.268Z,24.26
2023-05-19T14:46:06.689Z,24.50
2023-05-19T14:48:36.185Z,24.75
2023-05-19T14:51:05.948Z,24.86
2023-05-19T14:53:35.457Z,24.89
2023-05-19T14:56:06.460Z,24.73
2023-05-19T14:58:36.146Z,24.55
2023-05-19T15:01:05.520Z,24.20
2023-05-19T15:03:35.000Z,23.96
2023-05-19T15:06:08.532Z,23.96
2023-05-19T15:08:39.695Z,24.09
2023-05-19T15:11:09.443Z,24.31
2023-05-19T15:13:38.817Z,24.42
2023-05-19T15:16:17.382Z,24.43
2023-05-19T15:18:52.170Z,24.46
2023-05-19T15:21:21.965Z,24.45
2023-05-19T15:23:51.328Z,24.51
2023-05-19T15:26:20.765Z,24.60
2023-05-19T15:28:52.433Z,24.42
2023-05-19T15:31:22.801Z,24.04
2023-05-19T15:33:52.589Z,23.86
2023-05-19T15:36:22.431Z,23.76
2023-05-19T15:38:52.264Z,23.67
2023-05-19T15:41:22.285Z,23.51
2023-05-19T15:43:52.280Z,23.49
2023-05-19T15:46:22.104Z,23.48
2023-05-19T15:48:52.710Z,23.49
2023-05-19T15:51:23.029Z,23.58
2023-05-19T15:53:53.258Z,23.64
2023-05-19T15:56:23.114Z,23.76
2023-05-19T15:58:55.553Z,23.97
2023-05-19T16:01:25.030Z,24.09
2023-05-19T16:03:57.425Z,24.08
2023-05-19T16:06:28.199Z,24.07
2023-05-19T16:08:58.642Z,24.15
2023-05-19T16:11:27.942Z,24.24
2023-05-19T16:13:58.332Z,24.30
2023-05-19T16:16:28.602Z,24.35
2023-05-19T16:19:02.793Z,24.38
2023-05-19T16:21:33.041Z,24.48
2023-05-19T16:24:03.516Z,24.57
2023-05-19T16:26:34.940Z,24.55
2023-05-19T16:29:04.870Z,24.46
2023-05-19T16:31:35.250Z,24.42
2023-05-19T16:34:04.812Z,24.44
2023-05-19T16:36:34.930Z,24.47
2023-05-19T16:39:05.187Z,24.48
2023-05-19T16:41:35.193Z,24.51
2023-05-19T16:44:05.221Z,24.50
2023-05-19T16:46:35.035Z,24.41
2023-05-19T16:49:06.470Z,24.24
2023-05-19T16:51:38.625Z,24.12
2023-05-19T16:54:08.214Z,24.09
2023-05-19T16:56:37.885Z,24.08
2023-05-19T16:59:08.283Z,24.08
2023-05-19T17:01:38.687Z,24.06
2023-05-19T17:04:09.152Z,23.94
2023-05-19T17:06:38.904Z,23.79
2023-05-19T17:09:08.387Z,23.67
2023-05-19T17:11:37.879Z,23.54
2023-05-19T17:14:09.697Z,23.40
2023-05-19T17:16:39.310Z,23.28
2023-05-19T17:19:09.394Z,23.16
2023-05-19T17:21:38.987Z,23.01
2023-05-19T17:24:08.661Z,22.81
2023-05-19T17:26:37.991Z,22.65
2023-05-19T17:29:09.327Z,22.47
2023-05-19T17:31:40.731Z,22.30
2023-05-19T17:34:09.475Z,22.15
2023-05-19T17:36:38.989Z,22.03
2023-05-19T17:39:08.569Z,21.87
2023-05-19T17:41:38.012Z,21.72
2023-05-19T17:44:07.752Z,21.61
2023-05-19T18:17:05.314Z,19.95
2023-05-19T18:19:35.376Z,19.87
2023-05-19T18:22:04.922Z,19.76
2023-05-19T18:24:34.279Z,19.62
2023-05-19T18:27:03.758Z,19.50
2023-05-19T18:29:36.638Z,19.42
2023-05-19T18:32:06.939Z,19.33
2023-05-19T18:34:36.816Z,19.19
2023-05-19T18:37:05.573Z,19.07
2023-05-19T18:39:35.536Z,18.97
2023-05-19T18:42:05.496Z,18.90
2023-05-19T18:44:34.346Z,18.82
2023-05-19T18:47:03.800Z,18.76
2023-05-19T18:49:33.226Z,18.70
2023-05-19T18:52:02.698Z,18.65
2023-05-19T18:54:32.959Z,18.61
2023-05-19T18:57:03.885Z,18.55
2023-05-19T18:59:33.375Z,18.43
2023-05-19T19:02:03.653Z,18.27
2023-05-19T19:04:33.670Z,18.15
2023-05-19T19:07:03.235Z,18.06
2023-05-19T19:09:32.604Z,18.04
2023-05-19T19:12:02.313Z,18.01
2023-05-19T19:14:32.165Z,17.96
2023-05-19T19:17:01.572Z,17.92
2023-05-19T19:19:32.840Z,17.79
2023-05-19T19:22:02.590Z,17.61
2023-05-19T19:24:32.678Z,17.54
2023-05-19T19:27:02.396Z,17.53
2023-05-19T19:29:31.244Z,17.52
2023-05-19T19:32:00.909Z,17.50
2023-05-19T19:34:30.452Z,17.48
2023-05-19T19:37:00.011Z,17.48
2023-05-19T19:39:29.459Z,17.40
2023-05-19T19:41:58.932Z,17.34
2023-05-19T19:44:28.296Z,17.33
2023-05-19T19:46:57.799Z,17.32
2023-05-19T19:49:27.296Z,17.30
2023-05-19T19:51:59.110Z,17.25
2023-05-19T19:54:28.538Z,17.23
2023-05-19T19:56:58.302Z,17.18
2023-05-19T19:59:27.764Z,17.01
2023-05-19T20:01:57.173Z,16.84
2023-05-19T20:04:27.098Z,16.82
2023-05-19T20:06:56.988Z,16.82
2023-05-19T20:09:26.770Z,16.82
2023-05-19T20:11:55.429Z,16.82
2023-05-19T20:14:27.616Z,16.81
2023-05-19T20:16:56.298Z,16.78
2023-05-19T20:19:31.460Z,16.73
2023-05-19T20:22:01.064Z,16.73
2023-05-19T20:24:30.491Z,16.72
2023-05-19T20:27:00.027Z,16.69
2023-05-19T20:29:29.418Z,16.66
2023-05-19T20:31:58.943Z,16.64
2023-05-19T20:34:28.434Z,16.58
2023-05-19T20:36:57.822Z,16.53
2023-05-19T20:39:27.140Z,16.46
2023-05-19T20:41:56.691Z,16.40
2023-05-19T20:44:26.272Z,16.34
2023-05-19T20:46:55.654Z,16.28
2023-05-19T20:49:25.257Z,16.21
2023-05-19T20:51:54.821Z,16.15
2023-05-19T20:54:24.246Z,16.11
2023-05-19T20:56:53.790Z,16.05
2023-05-19T20:59:23.279Z,15.96
2023-05-19T21:01:53.381Z,15.77
2023-05-19T21:04:23.801Z,15.67
2023-05-19T21:06:54.196Z,15.62
2023-05-19T21:09:24.322Z,15.58
2023-05-19T21:11:54.536Z,15.52
2023-05-19T21:14:27.765Z,15.46
2023-05-19T21:16:57.753Z,15.39
2023-05-19T21:19:28.053Z,15.33
2023-05-19T21:21:58.267Z,15.28
2023-05-19T21:24:29.048Z,15.20
2023-05-19T21:27:00.653Z,15.11
2023-05-19T21:29:30.507Z,15.05
2023-05-19T21:32:00.639Z,15.00
2023-05-19T21:34:31.258Z,14.94
2023-05-19T21:37:01.837Z,14.87
2023-05-19T21:39:31.944Z,14.80
2023-05-19T21:42:01.816Z,14.74
2023-05-19T21:44:32.889Z,14.67
2023-05-19T21:47:03.020Z,14.61
2023-05-19T21:49:33.033Z,14.53
2023-05-19T21:52:03.164Z,14.47
2023-05-19T21:54:33.203Z,14.40
2023-05-19T21:57:03.360Z,14.33
2023-05-19T21:59:33.512Z,14.25
2023-05-19T22:02:03.788Z,14.17
2023-05-19T22:04:34.410Z,14.11
2023-05-19T22:07:04.446Z,14.08
2023-05-19T22:09:34.531Z,14.06
2023-05-19T22:12:04.738Z,14.03
2023-05-19T22:14:34.654Z,13.99
2023-05-19T22:17:04.128Z,13.93
2023-05-19T22:19:34.420Z,13.89
2023-05-19T22:22:13.173Z,13.80
2023-05-19T22:24:45.052Z,13.67
2023-05-19T22:27:15.149Z,13.60
2023-05-19T22:29:45.553Z,13.53
2023-05-19T22:32:18.663Z,13.47
2023-05-19T22:34:50.004Z,13.43
2023-05-19T22:37:20.136Z,13.42
2023-05-19T22:39:50.625Z,13.40
2023-05-19T22:42:21.147Z,13.37
2023-05-19T22:44:51.501Z,13.35
2023-05-19T22:47:20.677Z,13.30
2023-05-19T22:49:51.425Z,13.24
2023-05-19T22:52:21.905Z,13.20
2023-05-19T22:54:52.401Z,13.14
2023-05-19T22:57:22.961Z,13.09
2023-05-19T22:59:53.447Z,13.04
2023-05-19T23:02:23.559Z,12.96
2023-05-19T23:04:53.688Z,12.92
2023-05-19T23:07:23.735Z,12.88
2023-05-19T23:09:53.731Z,12.85
2023-05-19T23:12:23.289Z,12.81
2023-05-19T23:14:53.629Z,12.78
2023-05-19T23:17:23.619Z,12.75
2023-05-19T23:19:53.867Z,12.72
2023-05-19T23:22:25.563Z,12.70
2023-05-19T23:24:55.711Z,12.66
2023-05-19T23:27:25.780Z,12.63
2023-05-19T23:29:55.490Z,12.61
2023-05-19T23:32:27.288Z,12.58
2023-05-19T23:34:57.972Z,12.56
2023-05-19T23:37:28.116Z,12.50
2023-05-19T23:39:58.521Z,12.40
2023-05-19T23:42:28.650Z,12.34
2023-05-19T23:44:58.815Z,12.29
2023-05-19T23:47:28.794Z,12.21
2023-05-19T23:49:59.132Z,12.13
2023-05-19T23:52:29.310Z,12.07
2023-05-19T23:54:59.371Z,12.02
2023-05-19T23:57:29.292Z,11.99
2023-05-19T23:59:59.898Z,11.95
